createdAt,value
2022-11-01T00:00:46.898Z,14.19
2022-11-01T00:03:49.461Z,13.94
2022-11-01T00:06:51.948Z,14.14
2022-11-01T00:09:54.427Z,13.92
2022-11-01T00:12:58.369Z,13.97
2022-11-01T00:16:01.077Z,13.83
2022-11-01T00:19:03.566Z,13.78
2022-11-01T00:22:06.046Z,13.76
2022-11-01T00:25:13.039Z,13.93
2022-11-01T00:28:16.910Z,13.96
2022-11-01T00:31:20.944Z,13.96
2022-11-01T00:34:23.750Z,13.99
2022-11-01T00:37:26.717Z,14.20
2022-11-01T00:40:29.245Z,14.12
2022-11-01T00:43:34.008Z,14.26
2022-11-01T00:46:36.498Z,14.06
2022-11-01T00:49:38.984Z,14.11
2022-11-01T00:52:41.608Z,14.33
2022-11-01T00:55:44.165Z,14.31
2022-11-01T00:58:48.006Z,14.16
2022-11-01T01:01:50.782Z,14.04
2022-11-01T01:04:54.708Z,14.09
2022-11-01T01:07:57.453Z,14.10
2022-11-01T01:11:00.339Z,14.10
2022-11-01T01:14:04.207Z,14.19
2022-11-01T01:17:06.708Z,14.27
2022-11-01T01:20:10.668Z,14.40
2022-11-01T01:23:13.298Z,14.33
2022-11-01T01:26:15.777Z,14.16
2022-11-01T01:29:19.599Z,14.25
2022-11-01T01:32:24.668Z,14.16
2022-11-01T01:35:27.147Z,14.17
2022-11-01T01:38:29.897Z,14.12
2022-11-01T01:41:49.853Z,14.18
2022-11-01T01:45:24.804Z,14.23
2022-11-01T01:48:28.476Z,14.13
2022-11-01T01:51:31.092Z,14.27
2022-11-01T01:54:33.596Z,14.24
2022-11-01T01:57:37.616Z,14.24
2022-11-01T02:00:43.452Z,14.10
2022-11-01T02:03:46.114Z,14.26
2022-11-01T02:06:49.494Z,14.39
2022-11-01T02:09:52.498Z,14.35
2022-11-01T02:12:54.992Z,14.20
2022-11-01T02:16:15.797Z,14.20
2022-11-01T02:19:43.093Z,14.23
2022-11-01T02:23:09.905Z,14.28
2022-11-01T02:26:34.169Z,14.31
2022-11-01T02:30:15.388Z,14.37
2022-11-01T02:33:29.024Z,14.33
2022-11-01T02:36:36.842Z,14.32
2022-11-01T02:39:43.421Z,14.16
2022-11-01T02:42:49.564Z,14.32
2022-11-01T02:45:52.469Z,14.36
2022-11-01T02:48:58.818Z,14.39
2022-11-01T02:52:03.343Z,14.42
2022-11-01T02:55:29.504Z,14.48
2022-11-01T02:58:32.893Z,14.51
2022-11-01T03:01:37.314Z,14.52
2022-11-01T03:04:41.466Z,14.43
2022-11-01T03:07:49.150Z,14.42
2022-11-01T03:10:58.014Z,14.39
2022-11-01T03:14:05.435Z,14.41
2022-11-01T03:17:12.777Z,14.42
2022-11-01T03:20:24.584Z,14.54
2022-11-01T03:23:31.412Z,14.62
2022-11-01T03:26:36.063Z,14.61
2022-11-01T03:29:40.578Z,14.68
2022-11-01T03:32:47.812Z,14.66
2022-11-01T03:35:55.086Z,14.54
2022-11-01T03:39:00.714Z,14.48
2022-11-01T03:42:08.145Z,14.49
2022-11-01T03:45:13.324Z,14.60
2022-11-01T03:48:15.939Z,14.72
2022-11-01T03:51:19.784Z,14.68
2022-11-01T03:54:22.457Z,14.69
2022-11-01T03:57:25.016Z,14.61
2022-11-01T04:00:30.330Z,14.72
2022-11-01T04:03:32.821Z,14.72
2022-11-01T04:06:36.704Z,14.69
2022-11-01T04:09:39.180Z,14.45
2022-11-01T04:12:41.866Z,14.47
2022-11-01T04:16:02.057Z,14.42
2022-11-01T04:19:36.684Z,14.61
2022-11-01T04:22:40.547Z,14.49
2022-11-01T04:25:45.976Z,14.47
2022-11-01T04:28:56.910Z,14.60
2022-11-01T04:31:59.783Z,14.53
2022-11-01T04:35:02.331Z,14.63
2022-11-01T04:38:07.000Z,14.55
2022-11-01T04:41:09.604Z,14.56
2022-11-01T04:44:12.780Z,14.75
2022-11-01T04:47:15.296Z,14.73
2022-11-01T04:50:18.089Z,14.66
2022-11-01T04:53:21.916Z,14.68
2022-11-01T04:56:24.387Z,14.60
2022-11-01T04:59:26.859Z,14.71
2022-11-01T05:02:31.104Z,14.64
2022-11-01T05:05:33.882Z,14.59
2022-11-01T05:08:37.746Z,14.68
2022-11-01T05:11:40.224Z,14.75
2022-11-01T05:14:42.733Z,14.54
2022-11-01T05:17:45.212Z,14.61
2022-11-01T05:20:47.727Z,14.65
2022-11-01T05:23:51.569Z,14.72
2022-11-01T05:26:54.029Z,14.65
2022-11-01T05:29:56.629Z,14.75
2022-11-01T05:33:00.412Z,14.77
2022-11-01T05:36:02.952Z,14.72
2022-11-01T05:39:06.828Z,14.60
2022-11-01T05:42:09.328Z,14.74
2022-11-01T05:45:12.280Z,14.70
2022-11-01T05:48:14.784Z,14.59
2022-11-01T05:51:17.310Z,14.62
2022-11-01T05:54:21.121Z,14.60
2022-11-01T05:57:23.604Z,14.49
2022-11-01T06:00:26.088Z,14.35
2022-11-01T06:03:28.637Z,14.56
2022-11-01T06:06:31.560Z,14.71
2022-11-01T06:09:35.401Z,14.78
2022-11-01T06:12:37.917Z,14.66
2022-11-01T06:15:40.399Z,14.60
2022-11-01T06:18:43.948Z,14.64
2022-11-01T06:21:46.503Z,14.60
2022-11-01T06:24:50.576Z,14.68
2022-11-01T06:27:54.539Z,14.70
2022-11-01T06:30:57.174Z,14.58
2022-11-01T06:33:59.710Z,14.52
2022-11-01T06:37:02.230Z,14.76
2022-11-01T06:40:07.844Z,14.71
2022-11-01T06:43:10.516Z,14.89
2022-11-01T06:46:13.017Z,14.85
2022-11-01T06:49:18.880Z,14.66
2022-11-01T06:52:21.926Z,14.73
2022-11-01T06:55:26.256Z,14.68
2022-11-01T06:58:28.967Z,14.75
2022-11-01T07:01:31.634Z,14.50
2022-11-01T07:04:34.232Z,14.69
2022-11-01T07:07:36.741Z,14.70
2022-11-01T07:10:42.905Z,14.72
2022-11-01T07:13:45.387Z,14.70
2022-11-01T07:16:47.999Z,14.74
2022-11-01T07:19:50.488Z,14.86
2022-11-01T07:23:00.636Z,14.80
2022-11-01T07:26:05.099Z,14.75
2022-11-01T07:29:07.572Z,14.90
2022-11-01T07:32:10.067Z,14.75
2022-11-01T07:35:12.564Z,14.83
2022-11-01T07:38:15.701Z,14.90
2022-11-01T07:41:19.813Z,15.00
2022-11-01T07:44:22.308Z,15.09
2022-11-01T07:47:24.816Z,15.22
2022-11-01T07:50:27.282Z,15.20
2022-11-01T07:53:29.901Z,15.35
2022-11-01T07:56:33.995Z,15.32
2022-11-01T07:59:37.119Z,15.42
2022-11-01T08:02:39.827Z,15.03
2022-11-01T08:05:43.039Z,15.21
2022-11-01T08:08:45.968Z,15.27
2022-11-01T08:11:49.865Z,15.16
2022-11-01T08:14:52.357Z,15.35
2022-11-01T08:17:55.902Z,15.26
2022-11-01T08:20:59.495Z,15.31
2022-11-01T08:24:02.013Z,15.40
2022-11-01T08:27:05.856Z,15.42
2022-11-01T08:30:09.725Z,15.60
2022-11-01T08:33:12.608Z,15.37
2022-11-01T08:36:17.324Z,15.43
2022-11-01T08:39:19.790Z,15.52
2022-11-01T08:42:23.630Z,15.66
2022-11-01T08:45:26.709Z,15.85
2022-11-01T08:48:29.219Z,16.04
2022-11-01T08:51:32.641Z,16.06
2022-11-01T08:54:35.230Z,16.13
2022-11-01T08:57:39.227Z,16.20
2022-11-01T09:00:41.708Z,16.35
2022-11-01T09:03:44.257Z,16.43
2022-11-01T09:06:46.770Z,16.39
2022-11-01T09:09:49.241Z,16.42
2022-11-01T09:12:53.125Z,16.45
2022-11-01T09:15:59.939Z,16.32
2022-11-01T09:19:04.861Z,16.53
2022-11-01T09:22:08.615Z,16.49
2022-11-01T09:25:12.528Z,16.50
2022-11-01T09:28:16.396Z,16.63
2022-11-01T09:31:21.317Z,16.82
2022-11-01T09:34:24.181Z,16.71
2022-11-01T09:37:26.692Z,16.92
2022-11-01T09:40:32.890Z,16.82
2022-11-01T09:43:40.152Z,16.99
2022-11-01T09:46:46.670Z,17.02
2022-11-01T09:49:52.798Z,17.16
2022-11-01T09:52:56.952Z,17.32
2022-11-01T09:56:09.935Z,17.46
2022-11-01T09:59:26.492Z,17.60
2022-11-01T10:02:48.457Z,17.43
2022-11-01T10:05:59.909Z,17.39
2022-11-01T10:09:10.393Z,17.25
2022-11-01T10:12:23.825Z,17.26
2022-11-01T10:15:41.957Z,17.32
2022-11-01T10:18:53.268Z,17.23
2022-11-01T10:22:01.161Z,17.19
2022-11-01T10:25:07.952Z,17.10
2022-11-01T10:28:19.268Z,17.19
2022-11-01T10:31:27.254Z,17.12
2022-11-01T10:34:36.135Z,17.23
2022-11-01T10:37:52.001Z,17.23
2022-11-01T10:41:23.811Z,17.29
2022-11-01T10:44:31.245Z,17.27
2022-11-01T10:47:35.404Z,17.19
2022-11-01T10:50:39.265Z,17.19
2022-11-01T10:53:44.868Z,17.22
2022-11-01T10:56:51.229Z,17.90
2022-11-01T10:59:56.895Z,20.46
2022-11-01T11:03:08.773Z,22.60
2022-11-01T11:06:15.404Z,23.20
2022-11-01T11:09:23.973Z,20.61
2022-11-01T11:12:27.747Z,19.75
2022-11-01T11:15:38.459Z,19.18
2022-11-01T11:19:01.464Z,18.41
2022-11-01T11:22:07.799Z,19.25
2022-11-01T11:25:16.612Z,19.38
2022-11-01T11:28:25.584Z,18.84
2022-11-01T11:31:31.419Z,18.67
2022-11-01T11:34:37.981Z,18.31
2022-11-01T11:37:41.405Z,18.43
2022-11-01T11:40:45.632Z,18.39
2022-11-01T11:43:48.177Z,18.42
2022-11-01T11:46:58.043Z,18.53
2022-11-01T11:50:24.061Z,18.71
2022-11-01T11:53:29.157Z,19.61
2022-11-01T11:56:31.718Z,20.85
2022-11-01T11:59:35.324Z,21.59
2022-11-01T12:02:41.363Z,21.72
2022-11-01T12:05:55.227Z,21.33
2022-11-01T12:08:59.125Z,20.54
2022-11-01T12:12:08.028Z,20.46
2022-11-01T12:15:28.996Z,19.92
2022-11-01T12:18:31.506Z,19.70
2022-11-01T12:21:38.189Z,20.28
2022-11-01T12:24:46.393Z,20.25
2022-11-01T12:27:55.948Z,21.17
2022-11-01T12:31:04.048Z,22.57
2022-11-01T12:34:17.107Z,23.73
2022-11-01T12:37:25.480Z,24.48
2022-11-01T12:40:30.776Z,24.43
2022-11-01T12:43:42.766Z,24.56
2022-11-01T12:46:49.834Z,24.63
2022-11-01T12:49:56.625Z,24.83
2022-11-01T12:53:05.998Z,23.74
2022-11-01T12:56:08.763Z,24.77
2022-11-01T12:59:14.776Z,25.72
2022-11-01T13:02:37.891Z,26.32
2022-11-01T13:05:51.015Z,27.05
2022-11-01T13:09:03.076Z,26.96
2022-11-01T13:12:11.665Z,27.65
2022-11-01T13:15:22.902Z,27.86
2022-11-01T13:18:38.721Z,28.30
2022-11-01T13:21:49.416Z,27.66
2022-11-01T13:25:02.858Z,26.49
2022-11-01T13:28:16.954Z,25.31
2022-11-01T13:31:31.296Z,24.34
2022-11-01T13:34:42.942Z,23.01
2022-11-01T13:37:48.858Z,23.06
2022-11-01T13:41:03.215Z,22.39
2022-11-01T13:44:13.280Z,22.36
2022-11-01T13:47:30.583Z,20.84
2022-11-01T13:50:48.985Z,20.58
2022-11-01T13:53:58.664Z,20.33
2022-11-01T13:57:12.541Z,19.41
2022-11-01T14:00:37.160Z,19.34
2022-11-01T14:03:39.940Z,19.49
2022-11-01T14:06:43.752Z,19.30
2022-11-01T14:09:48.648Z,19.13
2022-11-01T14:13:15.318Z,19.06
2022-11-01T14:16:23.637Z,18.94
2022-11-01T14:19:27.213Z,18.97
2022-11-01T14:22:32.593Z,18.51
2022-11-01T14:25:35.091Z,18.62
2022-11-01T14:28:43.553Z,18.31
2022-11-01T14:31:47.834Z,18.40
2022-11-01T14:34:59.771Z,18.46
2022-11-01T14:38:07.603Z,18.18
2022-11-01T14:41:14.080Z,17.94
2022-11-01T14:44:25.761Z,17.87
2022-11-01T14:47:36.463Z,17.92
2022-11-01T14:50:51.426Z,17.98
2022-11-01T14:54:02.389Z,17.69
2022-11-01T14:57:20.670Z,17.49
2022-11-01T15:00:29.785Z,17.72
2022-11-01T15:03:33.089Z,17.71
2022-11-01T15:06:36.549Z,17.37
2022-11-01T15:09:39.063Z,17.42
2022-11-01T15:12:48.021Z,17.33
2022-11-01T15:16:02.816Z,17.17
2022-11-01T15:19:08.689Z,16.98
2022-11-01T15:22:17.641Z,17.14
2022-11-01T15:25:22.136Z,17.00
2022-11-01T15:28:27.143Z,16.86
2022-11-01T15:31:32.262Z,16.74
2022-11-01T15:34:36.376Z,16.75
2022-11-01T15:37:39.240Z,16.63
2022-11-01T15:40:42.545Z,16.83
2022-11-01T15:43:52.003Z,16.66
2022-11-01T15:46:58.963Z,16.67
2022-11-01T15:50:06.024Z,16.47
2022-11-01T15:53:11.039Z,16.55
2022-11-01T15:56:20.463Z,16.42
2022-11-01T15:59:27.715Z,16.45
2022-11-01T16:02:39.977Z,16.27
2022-11-01T16:05:48.784Z,16.38
2022-11-01T16:08:55.669Z,16.30
2022-11-01T16:11:59.945Z,16.12
2022-11-01T16:15:06.286Z,16.24
2022-11-01T16:18:17.755Z,16.17
2022-11-01T16:21:27.719Z,16.12
2022-11-01T16:24:30.299Z,16.13
2022-11-01T16:27:33.608Z,15.98
2022-11-01T16:30:40.616Z,15.91
2022-11-01T16:33:46.004Z,15.92
2022-11-01T16:36:48.656Z,15.81
2022-11-01T16:39:52.012Z,15.84
2022-11-01T16:42:56.665Z,15.90
2022-11-01T16:45:59.907Z,15.84
2022-11-01T16:49:19.117Z,15.81
2022-11-01T16:52:22.442Z,15.80
2022-11-01T16:55:28.451Z,15.70
2022-11-01T16:58:33.971Z,15.80
2022-11-01T17:01:36.797Z,15.73
2022-11-01T17:04:41.157Z,15.59
2022-11-01T17:07:43.656Z,15.64
2022-11-01T17:10:46.226Z,15.60
2022-11-01T17:13:49.016Z,15.42
2022-11-01T17:16:53.363Z,15.51
2022-11-01T17:20:01.542Z,15.43
2022-11-01T17:23:05.676Z,15.43
2022-11-01T17:26:11.162Z,15.06
2022-11-01T17:29:15.068Z,15.27
2022-11-01T17:32:17.637Z,15.27
2022-11-01T17:35:24.293Z,15.22
2022-11-01T17:38:31.961Z,15.10
2022-11-01T17:41:34.501Z,15.15
2022-11-01T17:44:37.418Z,15.12
2022-11-01T17:47:40.422Z,15.11
2022-11-01T17:50:44.849Z,15.00
2022-11-01T17:53:47.404Z,15.00
2022-11-01T17:56:50.851Z,14.99
2022-11-01T17:59:53.465Z,14.92
2022-11-01T18:02:56.018Z,14.89
2022-11-01T18:06:00.817Z,14.72
2022-11-01T18:09:05.534Z,14.75
2022-11-01T18:12:13.449Z,14.66
2022-11-01T18:15:22.125Z,14.65
2022-11-01T18:18:38.448Z,14.69
2022-11-01T18:21:52.909Z,14.63
2022-11-01T18:24:59.952Z,14.59
2022-11-01T18:28:11.709Z,14.55
2022-11-01T18:31:21.951Z,14.54
2022-11-01T18:34:31.950Z,14.45
2022-11-01T18:37:43.576Z,14.38
2022-11-01T18:40:56.535Z,14.31
2022-11-01T18:43:59.995Z,14.28
2022-11-01T18:47:07.806Z,14.19
2022-11-01T18:50:20.845Z,14.18
2022-11-01T18:53:25.098Z,14.09
2022-11-01T18:56:27.674Z,14.06
2022-11-01T18:59:32.444Z,14.01
2022-11-01T19:02:35.842Z,14.02
2022-11-01T19:05:38.484Z,13.99
2022-11-01T19:08:42.396Z,13.99
2022-11-01T19:11:45.067Z,13.96
2022-11-01T19:14:52.886Z,13.90
2022-11-01T19:18:02.705Z,13.89
2022-11-01T19:21:15.182Z,13.84
2022-11-01T19:24:31.521Z,13.67
2022-11-01T19:27:34.065Z,13.84
2022-11-01T19:30:36.614Z,13.88
2022-11-01T19:33:40.047Z,13.91
2022-11-01T19:36:44.373Z,13.88
2022-11-01T19:39:48.530Z,13.77
2022-11-01T19:42:51.085Z,13.83
2022-11-01T19:45:55.127Z,13.80
2022-11-01T19:48:57.678Z,13.73
2022-11-01T19:52:18.266Z,13.77
2022-11-01T19:55:39.959Z,13.64
2022-11-01T19:58:45.316Z,13.70
2022-11-01T20:01:48.288Z,13.72
2022-11-01T20:04:56.229Z,13.67
2022-11-01T20:08:10.397Z,13.67
2022-11-01T20:11:14.318Z,13.59
2022-11-01T20:14:17.030Z,13.68
2022-11-01T20:17:19.833Z,13.17
2022-11-01T20:20:22.366Z,13.12
2022-11-01T20:23:26.676Z,13.39
2022-11-01T20:26:32.061Z,13.50
2022-11-01T20:29:34.605Z,13.48
2022-11-01T20:32:37.776Z,13.57
2022-11-01T20:35:40.320Z,13.91
2022-11-01T20:38:42.911Z,13.54
2022-11-01T20:41:46.973Z,13.65
2022-11-01T20:44:50.012Z,13.59
2022-11-01T20:47:52.618Z,13.37
2022-11-01T20:50:55.168Z,13.40
2022-11-01T20:53:58.125Z,13.43
2022-11-01T20:57:02.439Z,13.39
2022-11-01T21:00:05.399Z,13.32
2022-11-01T21:03:15.612Z,13.36
2022-11-01T21:06:19.334Z,13.29
2022-11-01T21:09:30.091Z,13.23
2022-11-01T21:12:44.642Z,13.18
2022-11-01T21:15:47.244Z,13.09
2022-11-01T21:18:53.422Z,12.95
2022-11-01T21:21:58.131Z,13.01
2022-11-01T21:25:01.149Z,13.02
2022-11-01T21:28:15.587Z,13.06
2022-11-01T21:31:27.415Z,13.05
2022-11-01T21:34:31.979Z,13.10
2022-11-01T21:37:34.529Z,12.98
2022-11-01T21:40:37.350Z,12.95
2022-11-01T21:43:41.318Z,13.04
2022-11-01T21:46:48.141Z,13.18
2022-11-01T21:49:51.227Z,13.10
2022-11-01T21:52:53.776Z,13.18
2022-11-01T21:55:56.340Z,13.14
2022-11-01T21:59:00.275Z,13.12
2022-11-01T22:02:04.406Z,13.05
2022-11-01T22:05:07.728Z,13.02
2022-11-01T22:08:10.261Z,13.02
2022-11-01T22:11:12.810Z,12.93
2022-11-01T22:14:16.729Z,12.89
2022-11-01T22:17:19.282Z,12.85
2022-11-01T22:20:21.848Z,12.77
2022-11-01T22:23:24.379Z,12.76
2022-11-01T22:26:27.129Z,12.86
2022-11-01T22:29:31.018Z,12.83
2022-11-01T22:32:33.583Z,12.84
2022-11-01T22:35:36.192Z,12.72
2022-11-01T22:38:41.353Z,12.76
2022-11-01T22:41:44.543Z,12.60
2022-11-01T22:44:51.109Z,12.70
2022-11-01T22:47:53.672Z,12.69
2022-11-01T22:50:56.190Z,12.56
2022-11-01T22:54:00.318Z,12.59
2022-11-01T22:57:12.984Z,12.68
2022-11-01T23:00:28.003Z,12.51
2022-11-01T23:03:36.473Z,12.52
2022-11-01T23:06:39.045Z,12.43
2022-11-01T23:09:45.188Z,12.37
2022-11-01T23:13:05.762Z,12.45
2022-11-01T23:16:23.018Z,12.57
2022-11-01T23:19:25.618Z,12.58
2022-11-01T23:22:34.037Z,12.62
2022-11-01T23:25:36.645Z,12.50
2022-11-01T23:28:42.151Z,12.56
2022-11-01T23:31:46.291Z,12.33
2022-11-01T23:34:50.333Z,12.52
2022-11-01T23:37:54.778Z,12.65
2022-11-01T23:40:58.476Z,12.65
2022-11-01T23:44:03.610Z,12.63
2022-11-01T23:47:20.607Z,12.51
2022-11-01T23:50:28.407Z,12.68
2022-11-01T23:53:34.895Z,12.58
2022-11-01T23:56:44.716Z,12.71
2022-11-01T23:59:48.030Z,12.80
